sensor_id;sensor_type;location;lat;lon;timestamp;P1;durP1;ratioP1;P2;durP2;ratioP2
12214;SDS011;6170;42.206;24.142;2023-02-15T00:01:26;26.85;;;15.10;;
12214;SDS011;6170;42.206;24.142;2023-02-15T00:03:53;25.58;;;14.52;;
12214;SDS011;6170;42.206;24.142;2023-02-15T00:06:20;28.13;;;16.15;;
12214;SDS011;6170;42.206;24.142;2023-02-15T00:08:49;29.63;;;16.65;;
12214;SDS011;6170;42.206;24.142;2023-02-15T00:11:17;29.90;;;15.23;;
12214;SDS011;6170;42.206;24.142;2023-02-15T00:14:04;27.40;;;15.73;;
12214;SDS011;6170;42.206;24.142;2023-02-15T00:16:31;27.15;;;15.20;;
12214;SDS011;6170;42.206;24.142;2023-02-15T00:18:58;24.90;;;13.90;;
12214;SDS011;6170;42.206;24.142;2023-02-15T00:21:27;29.08;;;15.38;;
12214;SDS011;6170;42.206;24.142;2023-02-15T00:23:56;26.35;;;15.77;;
12214;SDS011;6170;42.206;24.142;2023-02-15T00:26:23;29.90;;;15.52;;
12214;SDS011;6170;42.206;24.142;2023-02-15T00:28:51;30.55;;;15.65;;
12214;SDS011;6170;42.206;24.142;2023-02-15T00:31:18;29.17;;;15.45;;
12214;SDS011;6170;42.206;24.142;2023-02-15T00:33:45;29.30;;;15.50;;
12214;SDS011;6170;42.206;24.142;2023-02-15T00:36:13;25.20;;;13.90;;
12214;SDS011;6170;42.206;24.142;2023-02-15T00:38:39;23.05;;;13.25;;
12214;SDS011;6170;42.206;24.142;2023-02-15T00:41:08;23.17;;;13.57;;
12214;SDS011;6170;42.206;24.142;2023-02-15T00:43:35;21.30;;;12.38;;
12214;SDS011;6170;42.206;24.142;2023-02-15T00:46:02;20.08;;;11.25;;
12214;SDS011;6170;42.206;24.142;2023-02-15T00:48:30;20.60;;;11.60;;
12214;SDS011;6170;42.206;24.142;2023-02-15T00:50:57;23.50;;;12.07;;
12214;SDS011;6170;42.206;24.142;2023-02-15T00:53:26;19.65;;;11.88;;
12214;SDS011;6170;42.206;24.142;2023-02-15T00:55:53;19.92;;;11.70;;
12214;SDS011;6170;42.206;24.142;2023-02-15T00:58:21;22.10;;;11.95;;
12214;SDS011;6170;42.206;24.142;2023-02-15T01:00:48;18.42;;;11.15;;
12214;SDS011;6170;42.206;24.142;2023-02-15T01:03:15;21.02;;;11.98;;
12214;SDS011;6170;42.206;24.142;2023-02-15T01:05:43;23.08;;;12.40;;
12214;SDS011;6170;42.206;24.142;2023-02-15T01:08:10;22.38;;;13.02;;
12214;SDS011;6170;42.206;24.142;2023-02-15T01:10:37;23.17;;;12.38;;
12214;SDS011;6170;42.206;24.142;2023-02-15T01:13:04;21.08;;;12.80;;
12214;SDS011;6170;42.206;24.142;2023-02-15T01:15:34;22.65;;;12.73;;
12214;SDS011;6170;42.206;24.142;2023-02-15T01:18:02;24.38;;;13.02;;
12214;SDS011;6170;42.206;24.142;2023-02-15T01:20:29;23.77;;;12.88;;
12214;SDS011;6170;42.206;24.142;2023-02-15T01:22:56;25.13;;;14.02;;
12214;SDS011;6170;42.206;24.142;2023-02-15T01:25:24;21.92;;;12.73;;
12214;SDS011;6170;42.206;24.142;2023-02-15T01:27:51;23.25;;;13.63;;
12214;SDS011;6170;42.206;24.142;2023-02-15T01:30:18;24.00;;;13.55;;
12214;SDS011;6170;42.206;24.142;2023-02-15T01:32:46;23.05;;;13.68;;
12214;SDS011;6170;42.206;24.142;2023-02-15T01:35:13;26.83;;;15.00;;
12214;SDS011;6170;42.206;24.142;2023-02-15T01:37:40;23.95;;;13.68;;
12214;SDS011;6170;42.206;24.142;2023-02-15T01:40:07;22.80;;;13.45;;
12214;SDS011;6170;42.206;24.142;2023-02-15T01:42:38;22.52;;;13.05;;
12214;SDS011;6170;42.206;24.142;2023-02-15T01:45:05;26.65;;;13.70;;
12214;SDS011;6170;42.206;24.142;2023-02-15T01:47:49;25.08;;;12.63;;
12214;SDS011;6170;42.206;24.142;2023-02-15T01:50:21;24.27;;;13.73;;
12214;SDS011;6170;42.206;24.142;2023-02-15T01:52:52;23.98;;;13.27;;
12214;SDS011;6170;42.206;24.142;2023-02-15T01:55:24;22.33;;;13.38;;
12214;SDS011;6170;42.206;24.142;2023-02-15T01:57:53;23.88;;;13.13;;
12214;SDS011;6170;42.206;24.142;2023-02-15T02:00:20;23.75;;;13.23;;
12214;SDS011;6170;42.206;24.142;2023-02-15T02:02:49;24.23;;;13.73;;
12214;SDS011;6170;42.206;24.142;2023-02-15T02:05:20;23.10;;;14.07;;
12214;SDS011;6170;42.206;24.142;2023-02-15T02:07:47;27.42;;;14.80;;
12214;SDS011;6170;42.206;24.142;2023-02-15T02:12:45;24.83;;;14.48;;
12214;SDS011;6170;42.206;24.142;2023-02-15T02:15:15;26.65;;;14.07;;
12214;SDS011;6170;42.206;24.142;2023-02-15T02:17:45;28.92;;;15.98;;
12214;SDS011;6170;42.206;24.142;2023-02-15T02:20:36;25.88;;;13.93;;
12214;SDS011;6170;42.206;24.142;2023-02-15T02:26:18;26.30;;;14.25;;
12214;SDS011;6170;42.206;24.142;2023-02-15T02:29:22;26.92;;;14.43;;
12214;SDS011;6170;42.206;24.142;2023-02-15T02:32:22;25.83;;;14.18;;
12214;SDS011;6170;42.206;24.142;2023-02-15T02:35:07;24.42;;;14.30;;
12214;SDS011;6170;42.206;24.142;2023-02-15T02:37:41;29.35;;;14.40;;
12214;SDS011;6170;42.206;24.142;2023-02-15T02:40:18;27.38;;;14.93;;
12214;SDS011;6170;42.206;24.142;2023-02-15T02:42:48;26.63;;;15.10;;
12214;SDS011;6170;42.206;24.142;2023-02-15T02:45:22;30.55;;;16.65;;
12214;SDS011;6170;42.206;24.142;2023-02-15T02:47:53;30.27;;;17.02;;
12214;SDS011;6170;42.206;24.142;2023-02-15T02:50:26;30.30;;;16.05;;
12214;SDS011;6170;42.206;24.142;2023-02-15T02:52:56;32.10;;;16.67;;
12214;SDS011;6170;42.206;24.142;2023-02-15T02:55:24;32.03;;;17.00;;
12214;SDS011;6170;42.206;24.142;2023-02-15T02:57:57;34.50;;;17.50;;
12214;SDS011;6170;42.206;24.142;2023-02-15T03:00:29;32.08;;;17.58;;
12214;SDS011;6170;42.206;24.142;2023-02-15T03:03:00;32.63;;;17.85;;
12214;SDS011;6170;42.206;24.142;2023-02-15T03:05:35;35.53;;;18.27;;
12214;SDS011;6170;42.206;24.142;2023-02-15T03:08:05;31.33;;;17.33;;
12214;SDS011;6170;42.206;24.142;2023-02-15T03:10:35;36.97;;;19.00;;
12214;SDS011;6170;42.206;24.142;2023-02-15T03:13:04;33.53;;;17.85;;
12214;SDS011;6170;42.206;24.142;2023-02-15T03:15:31;32.67;;;18.63;;
12214;SDS011;6170;42.206;24.142;2023-02-15T03:18:16;32.58;;;18.38;;
12214;SDS011;6170;42.206;24.142;2023-02-15T03:20:47;33.85;;;17.40;;
12214;SDS011;6170;42.206;24.142;2023-02-15T03:23:16;28.20;;;16.08;;
12214;SDS011;6170;42.206;24.142;2023-02-15T03:25:48;31.77;;;17.27;;
12214;SDS011;6170;42.206;24.142;2023-02-15T03:28:19;33.22;;;17.75;;
12214;SDS011;6170;42.206;24.142;2023-02-15T03:33:19;28.92;;;15.88;;
12214;SDS011;6170;42.206;24.142;2023-02-15T03:35:52;29.15;;;17.10;;
12214;SDS011;6170;42.206;24.142;2023-02-15T03:38:33;27.80;;;16.33;;
12214;SDS011;6170;42.206;24.142;2023-02-15T03:41:06;30.88;;;16.42;;
12214;SDS011;6170;42.206;24.142;2023-02-15T03:43:39;28.70;;;16.25;;
12214;SDS011;6170;42.206;24.142;2023-02-15T03:46:15;29.30;;;15.85;;
12214;SDS011;6170;42.206;24.142;2023-02-15T03:48:49;28.63;;;16.40;;
12214;SDS011;6170;42.206;24.142;2023-02-15T03:51:21;33.58;;;17.45;;
12214;SDS011;6170;42.206;24.142;2023-02-15T03:54:01;29.80;;;16.13;;
12214;SDS011;6170;42.206;24.142;2023-02-15T03:56:30;30.63;;;16.25;;
12214;SDS011;6170;42.206;24.142;2023-02-15T03:58:59;30.73;;;17.23;;
12214;SDS011;6170;42.206;24.142;2023-02-15T04:01:55;33.25;;;16.23;;
12214;SDS011;6170;42.206;24.142;2023-02-15T04:04:34;30.38;;;16.50;;
12214;SDS011;6170;42.206;24.142;2023-02-15T04:07:04;34.80;;;17.13;;
12214;SDS011;6170;42.206;24.142;2023-02-15T04:09:33;32.85;;;16.70;;
12214;SDS011;6170;42.206;24.142;2023-02-15T04:12:18;29.73;;;16.65;;
12214;SDS011;6170;42.206;24.142;2023-02-15T04:14:45;29.65;;;15.60;;
12214;SDS011;6170;42.206;24.142;2023-02-15T04:17:29;28.92;;;16.30;;
12214;SDS011;6170;42.206;24.142;2023-02-15T04:19:56;27.98;;;15.95;;
12214;SDS011;6170;42.206;24.142;2023-02-15T04:22:42;30.58;;;16.38;;
12214;SDS011;6170;42.206;24.142;2023-02-15T04:25:27;31.02;;;16.92;;
12214;SDS011;6170;42.206;24.142;2023-02-15T04:27:54;29.10;;;16.60;;
12214;SDS011;6170;42.206;24.142;2023-02-15T04:30:21;29.50;;;16.27;;
12214;SDS011;6170;42.206;24.142;2023-02-15T04:32:50;31.55;;;16.95;;
12214;SDS011;6170;42.206;24.142;2023-02-15T04:35:17;31.98;;;17.35;;
12214;SDS011;6170;42.206;24.142;2023-02-15T04:37:45;33.08;;;17.58;;
12214;SDS011;6170;42.206;24.142;2023-02-15T04:40:13;28.90;;;16.33;;
12214;SDS011;6170;42.206;24.142;2023-02-15T04:42:41;31.02;;;17.17;;
12214;SDS011;6170;42.206;24.142;2023-02-15T04:45:08;49.58;;;23.77;;
12214;SDS011;6170;42.206;24.142;2023-02-15T04:47:34;42.40;;;22.10;;
12214;SDS011;6170;42.206;24.142;2023-02-15T04:50:01;37.03;;;18.35;;
12214;SDS011;6170;42.206;24.142;2023-02-15T04:52:28;28.15;;;16.35;;
12214;SDS011;6170;42.206;24.142;2023-02-15T04:54:57;34.55;;;17.27;;
12214;SDS011;6170;42.206;24.142;2023-02-15T04:57:23;37.75;;;16.77;;
12214;SDS011;6170;42.206;24.142;2023-02-15T04:59:50;32.80;;;17.08;;
12214;SDS011;6170;42.206;24.142;2023-02-15T05:02:17;32.70;;;16.40;;
12214;SDS011;6170;42.206;24.142;2023-02-15T05:04:44;31.58;;;16.17;;
12214;SDS011;6170;42.206;24.142;2023-02-15T05:07:11;34.53;;;17.38;;
12214;SDS011;6170;42.206;24.142;2023-02-15T05:09:38;33.47;;;16.90;;
12214;SDS011;6170;42.206;24.142;2023-02-15T05:12:06;34.05;;;17.42;;
12214;SDS011;6170;42.206;24.142;2023-02-15T05:14:33;33.28;;;16.35;;
12214;SDS011;6170;42.206;24.142;2023-02-15T05:17:00;32.55;;;17.92;;
12214;SDS011;6170;42.206;24.142;2023-02-15T05:19:28;40.17;;;16.67;;
12214;SDS011;6170;42.206;24.142;2023-02-15T05:21:55;34.25;;;16.25;;
12214;SDS011;6170;42.206;24.142;2023-02-15T05:24:22;29.65;;;16.25;;
12214;SDS011;6170;42.206;24.142;2023-02-15T05:27:16;32.20;;;16.08;;
12214;SDS011;6170;42.206;24.142;2023-02-15T05:30:00;29.15;;;16.13;;
12214;SDS011;6170;42.206;24.142;2023-02-15T05:32:27;29.70;;;16.20;;
12214;SDS011;6170;42.206;24.142;2023-02-15T05:34:54;33.78;;;18.15;;
12214;SDS011;6170;42.206;24.142;2023-02-15T05:37:20;30.92;;;17.05;;
12214;SDS011;6170;42.206;24.142;2023-02-15T05:39:47;30.45;;;17.45;;
12214;SDS011;6170;42.206;24.142;2023-02-15T05:42:15;33.50;;;18.20;;
12214;SDS011;6170;42.206;24.142;2023-02-15T05:44:42;29.13;;;16.98;;
12214;SDS011;6170;42.206;24.142;2023-02-15T05:47:08;30.73;;;17.35;;
12214;SDS011;6170;42.206;24.142;2023-02-15T05:49:35;30.50;;;16.83;;
12214;SDS011;6170;42.206;24.142;2023-02-15T05:52:02;35.03;;;17.75;;
12214;SDS011;6170;42.206;24.142;2023-02-15T05:54:29;37.15;;;18.45;;
12214;SDS011;6170;42.206;24.142;2023-02-15T05:56:56;30.88;;;16.23;;
12214;SDS011;6170;42.206;24.142;2023-02-15T05:59:24;29.13;;;15.45;;
12214;SDS011;6170;42.206;24.142;2023-02-15T06:01:51;28.45;;;15.70;;
12214;SDS011;6170;42.206;24.142;2023-02-15T06:04:18;28.13;;;16.92;;
12214;SDS011;6170;42.206;24.142;2023-02-15T06:06:44;27.20;;;15.13;;
12214;SDS011;6170;42.206;24.142;2023-02-15T06:09:11;27.20;;;15.40;;
12214;SDS011;6170;42.206;24.142;2023-02-15T06:11:38;26.02;;;15.40;;
12214;SDS011;6170;42.206;24.142;2023-02-15T06:14:05;26.48;;;16.00;;
12214;SDS011;6170;42.206;24.142;2023-02-15T06:16:33;33.92;;;16.73;;
12214;SDS011;6170;42.206;24.142;2023-02-15T06:19:00;31.70;;;18.23;;
12214;SDS011;6170;42.206;24.142;2023-02-15T06:21:27;31.92;;;17.90;;
12214;SDS011;6170;42.206;24.142;2023-02-15T06:23:54;25.45;;;16.80;;
12214;SDS011;6170;42.206;24.142;2023-02-15T06:26:21;28.45;;;17.95;;
12214;SDS011;6170;42.206;24.142;2023-02-15T06:28:47;25.00;;;17.23;;
12214;SDS011;6170;42.206;24.142;2023-02-15T06:31:14;31.73;;;20.33;;
12214;SDS011;6170;42.206;24.142;2023-02-15T06:33:43;27.30;;;16.02;;
12214;SDS011;6170;42.206;24.142;2023-02-15T06:36:09;23.33;;;17.42;;
12214;SDS011;6170;42.206;24.142;2023-02-15T06:38:37;23.60;;;17.52;;
12214;SDS011;6170;42.206;24.142;2023-02-15T06:41:04;25.88;;;17.40;;
12214;SDS011;6170;42.206;24.142;2023-02-15T06:43:31;27.20;;;20.20;;
12214;SDS011;6170;42.206;24.142;2023-02-15T06:45:58;24.30;;;17.70;;
12214;SDS011;6170;42.206;24.142;2023-02-15T06:48:25;26.92;;;17.33;;
12214;SDS011;6170;42.206;24.142;2023-02-15T06:50:54;24.83;;;18.30;;
12214;SDS011;6170;42.206;24.142;2023-02-15T06:53:20;25.98;;;17.67;;
12214;SDS011;6170;42.206;24.142;2023-02-15T06:55:47;25.80;;;18.88;;
12214;SDS011;6170;42.206;24.142;2023-02-15T06:58:14;33.88;;;23.17;;
12214;SDS011;6170;42.206;24.142;2023-02-15T07:00:41;29.30;;;20.27;;
12214;SDS011;6170;42.206;24.142;2023-02-15T07:03:08;28.63;;;19.52;;
12214;SDS011;6170;42.206;24.142;2023-02-15T07:05:34;24.85;;;18.02;;
12214;SDS011;6170;42.206;24.142;2023-02-15T07:08:03;29.90;;;19.90;;
12214;SDS011;6170;42.206;24.142;2023-02-15T07:10:30;32.03;;;18.13;;
12214;SDS011;6170;42.206;24.142;2023-02-15T07:12:56;25.75;;;16.58;;
12214;SDS011;6170;42.206;24.142;2023-02-15T07:15:22;25.48;;;17.67;;
12214;SDS011;6170;42.206;24.142;2023-02-15T07:17:49;26.10;;;17.52;;
12214;SDS011;6170;42.206;24.142;2023-02-15T07:20:17;26.55;;;17.45;;
12214;SDS011;6170;42.206;24.142;2023-02-15T07:22:45;27.90;;;17.33;;
12214;SDS011;6170;42.206;24.142;2023-02-15T07:25:14;30.50;;;18.60;;
12214;SDS011;6170;42.206;24.142;2023-02-15T07:27:41;25.95;;;17.55;;
12214;SDS011;6170;42.206;24.142;2023-02-15T07:30:10;27.20;;;16.92;;
12214;SDS011;6170;42.206;24.142;2023-02-15T07:32:38;27.13;;;17.85;;
12214;SDS011;6170;42.206;24.142;2023-02-15T07:35:25;23.67;;;15.90;;
12214;SDS011;6170;42.206;24.142;2023-02-15T07:37:52;31.00;;;16.85;;
12214;SDS011;6170;42.206;24.142;2023-02-15T07:40:21;23.88;;;16.10;;
12214;SDS011;6170;42.206;24.142;2023-02-15T07:42:49;30.70;;;17.40;;
12214;SDS011;6170;42.206;24.142;2023-02-15T07:45:18;22.40;;;14.73;;
12214;SDS011;6170;42.206;24.142;2023-02-15T07:47:44;25.55;;;16.13;;
12214;SDS011;6170;42.206;24.142;2023-02-15T07:50:11;25.80;;;17.05;;
12214;SDS011;6170;42.206;24.142;2023-02-15T07:52:38;26.83;;;17.50;;
12214;SDS011;6170;42.206;24.142;2023-02-15T07:55:05;22.73;;;15.10;;
12214;SDS011;6170;42.206;24.142;2023-02-15T07:57:35;24.77;;;15.32;;
12214;SDS011;6170;42.206;24.142;2023-02-15T08:00:02;23.10;;;15.43;;
12214;SDS011;6170;42.206;24.142;2023-02-15T08:02:29;26.75;;;16.50;;
12214;SDS011;6170;42.206;24.142;2023-02-15T08:04:56;30.50;;;18.38;;
12214;SDS011;6170;42.206;24.142;2023-02-15T08:07:22;31.13;;;17.85;;
12214;SDS011;6170;42.206;24.142;2023-02-15T08:09:49;24.30;;;15.48;;
12214;SDS011;6170;42.206;24.142;2023-02-15T08:12:16;32.55;;;17.65;;
12214;SDS011;6170;42.206;24.142;2023-02-15T08:14:44;22.38;;;15.55;;
12214;SDS011;6170;42.206;24.142;2023-02-15T08:17:11;26.92;;;16.63;;
12214;SDS011;6170;42.206;24.142;2023-02-15T08:19:38;26.67;;;16.30;;
12214;SDS011;6170;42.206;24.142;2023-02-15T08:22:05;36.38;;;20.83;;
12214;SDS011;6170;42.206;24.142;2023-02-15T08:24:35;25.92;;;16.75;;
12214;SDS011;6170;42.206;24.142;2023-02-15T08:27:03;28.40;;;16.40;;
12214;SDS011;6170;42.206;24.142;2023-02-15T08:29:30;25.50;;;14.95;;
12214;SDS011;6170;42.206;24.142;2023-02-15T08:32:00;24.45;;;16.30;;
12214;SDS011;6170;42.206;24.142;2023-02-15T08:34:29;31.58;;;17.17;;
12214;SDS011;6170;42.206;24.142;2023-02-15T08:36:56;27.05;;;15.55;;
12214;SDS011;6170;42.206;24.142;2023-02-15T08:39:23;27.00;;;17.65;;
12214;SDS011;6170;42.206;24.142;2023-02-15T08:41:50;23.17;;;15.50;;
12214;SDS011;6170;42.206;24.142;2023-02-15T08:44:17;21.35;;;13.75;;
12214;SDS011;6170;42.206;24.142;2023-02-15T08:46:45;23.73;;;15.52;;
12214;SDS011;6170;42.206;24.142;2023-02-15T08:49:16;20.08;;;13.55;;
12214;SDS011;6170;42.206;24.142;2023-02-15T08:51:44;22.30;;;15.18;;
12214;SDS011;6170;42.206;24.142;2023-02-15T08:54:12;38.15;;;21.30;;
12214;SDS011;6170;42.206;24.142;2023-02-15T08:56:41;29.67;;;18.33;;
12214;SDS011;6170;42.206;24.142;2023-02-15T08:59:12;24.08;;;16.20;;
12214;SDS011;6170;42.206;24.142;2023-02-15T09:01:40;30.50;;;17.75;;
12214;SDS011;6170;42.206;24.142;2023-02-15T09:04:07;31.85;;;16.63;;
12214;SDS011;6170;42.206;24.142;2023-02-15T09:06:37;26.98;;;16.05;;
12214;SDS011;6170;42.206;24.142;2023-02-15T09:09:04;22.60;;;14.43;;
12214;SDS011;6170;42.206;24.142;2023-02-15T09:11:33;29.85;;;18.02;;
12214;SDS011;6170;42.206;24.142;2023-02-15T09:14:01;18.77;;;12.63;;
12214;SDS011;6170;42.206;24.142;2023-02-15T09:16:31;18.83;;;12.98;;
12214;SDS011;6170;42.206;24.142;2023-02-15T09:18:59;22.70;;;11.77;;
12214;SDS011;6170;42.206;24.142;2023-02-15T09:21:27;18.48;;;12.38;;
12214;SDS011;6170;42.206;24.142;2023-02-15T09:23:57;21.88;;;12.60;;
12214;SDS011;6170;42.206;24.142;2023-02-15T09:26:25;23.83;;;15.73;;
12214;SDS011;6170;42.206;24.142;2023-02-15T09:28:54;19.20;;;13.68;;
12214;SDS011;6170;42.206;24.142;2023-02-15T09:31:23;20.52;;;14.25;;
12214;SDS011;6170;42.206;24.142;2023-02-15T09:33:51;20.30;;;13.73;;
12214;SDS011;6170;42.206;24.142;2023-02-15T09:36:19;17.95;;;13.20;;
12214;SDS011;6170;42.206;24.142;2023-02-15T09:38:50;20.00;;;13.50;;
12214;SDS011;6170;42.206;24.142;2023-02-15T09:41:28;21.33;;;14.40;;
12214;SDS011;6170;42.206;24.142;2023-02-15T09:44:13;16.95;;;12.27;;
12214;SDS011;6170;42.206;24.142;2023-02-15T09:47:03;19.10;;;12.52;;
12214;SDS011;6170;42.206;24.142;2023-02-15T09:49:41;22.08;;;12.25;;
12214;SDS011;6170;42.206;24.142;2023-02-15T09:52:23;17.98;;;13.02;;
12214;SDS011;6170;42.206;24.142;2023-02-15T09:55:13;17.23;;;12.38;;
12214;SDS011;6170;42.206;24.142;2023-02-15T09:57:55;17.15;;;12.52;;
12214;SDS011;6170;42.206;24.142;2023-02-15T10:00:30;21.55;;;11.95;;
12214;SDS011;6170;42.206;24.142;2023-02-15T10:03:11;22.52;;;13.63;;
12214;SDS011;6170;42.206;24.142;2023-02-15T10:05:50;19.02;;;12.88;;
12214;SDS011;6170;42.206;24.142;2023-02-15T10:11:14;20.60;;;12.40;;
12214;SDS011;6170;42.206;24.142;2023-02-15T10:14:20;15.82;;;11.95;;
12214;SDS011;6170;42.206;24.142;2023-02-15T10:17:05;19.80;;;13.93;;
12214;SDS011;6170;42.206;24.142;2023-02-15T10:19:41;16.73;;;12.15;;
12214;SDS011;6170;42.206;24.142;2023-02-15T10:22:19;19.05;;;13.07;;
12214;SDS011;6170;42.206;24.142;2023-02-15T10:25:03;25.92;;;16.33;;
12214;SDS011;6170;42.206;24.142;2023-02-15T10:27:44;16.77;;;12.60;;
12214;SDS011;6170;42.206;24.142;2023-02-15T10:32:47;21.10;;;12.45;;
12214;SDS011;6170;42.206;24.142;2023-02-15T10:35:26;15.60;;;12.43;;
12214;SDS011;6170;42.206;24.142;2023-02-15T10:38:05;18.30;;;12.65;;
12214;SDS011;6170;42.206;24.142;2023-02-15T10:40:45;17.40;;;12.55;;
12214;SDS011;6170;42.206;24.142;2023-02-15T10:43:26;16.92;;;11.68;;
12214;SDS011;6170;42.206;24.142;2023-02-15T10:46:05;17.35;;;12.60;;
12214;SDS011;6170;42.206;24.142;2023-02-15T10:48:41;17.13;;;12.00;;
12214;SDS011;6170;42.206;24.142;2023-02-15T10:51:27;16.95;;;12.02;;
12214;SDS011;6170;42.206;24.142;2023-02-15T10:54:02;19.70;;;11.95;;
12214;SDS011;6170;42.206;24.142;2023-02-15T10:56:36;17.55;;;12.93;;
12214;SDS011;6170;42.206;24.142;2023-02-15T10:59:15;19.40;;;13.18;;
12214;SDS011;6170;42.206;24.142;2023-02-15T11:01:51;18.88;;;12.82;;
12214;SDS011;6170;42.206;24.142;2023-02-15T11:07:17;20.05;;;13.73;;
12214;SDS011;6170;42.206;24.142;2023-02-15T11:09:50;18.65;;;12.07;;
12214;SDS011;6170;42.206;24.142;2023-02-15T11:12:20;21.17;;;15.60;;
12214;SDS011;6170;42.206;24.142;2023-02-15T11:14:51;16.30;;;12.63;;
12214;SDS011;6170;42.206;24.142;2023-02-15T11:17:25;16.88;;;11.63;;
12214;SDS011;6170;42.206;24.142;2023-02-15T11:19:58;19.00;;;12.57;;
12214;SDS011;6170;42.206;24.142;2023-02-15T11:22:34;17.73;;;12.25;;
12214;SDS011;6170;42.206;24.142;2023-02-15T11:25:04;16.58;;;11.88;;
12214;SDS011;6170;42.206;24.142;2023-02-15T11:27:42;18.50;;;11.93;;
12214;SDS011;6170;42.206;24.142;2023-02-15T11:30:13;16.45;;;12.15;;
12214;SDS011;6170;42.206;24.142;2023-02-15T11:32:43;16.00;;;12.02;;
12214;SDS011;6170;42.206;24.142;2023-02-15T11:35:17;19.27;;;12.00;;
12214;SDS011;6170;42.206;24.142;2023-02-15T11:37:50;19.92;;;12.63;;
12214;SDS011;6170;42.206;24.142;2023-02-15T11:40:22;15.35;;;12.23;;
12214;SDS011;6170;42.206;24.142;2023-02-15T11:42:51;17.77;;;12.30;;
12214;SDS011;6170;42.206;24.142;2023-02-15T11:45:24;18.92;;;13.30;;
12214;SDS011;6170;42.206;24.142;2023-02-15T11:47:55;19.30;;;12.03;;
12214;SDS011;6170;42.206;24.142;2023-02-15T11:50:23;21.85;;;14.27;;
12214;SDS011;6170;42.206;24.142;2023-02-15T11:52:52;19.85;;;13.45;;
12214;SDS011;6170;42.206;24.142;2023-02-15T11:55:24;21.60;;;14.35;;
12214;SDS011;6170;42.206;24.142;2023-02-15T11:57:52;21.65;;;15.32;;
12214;SDS011;6170;42.206;24.142;2023-02-15T12:00:25;24.70;;;14.70;;
12214;SDS011;6170;42.206;24.142;2023-02-15T12:03:03;19.50;;;14.00;;
12214;SDS011;6170;42.206;24.142;2023-02-15T12:05:37;15.05;;;10.90;;
12214;SDS011;6170;42.206;24.142;2023-02-15T12:08:10;19.38;;;12.77;;
12214;SDS011;6170;42.206;24.142;2023-02-15T12:10:44;15.40;;;12.07;;
12214;SDS011;6170;42.206;24.142;2023-02-15T12:13:19;34.42;;;20.63;;
12214;SDS011;6170;42.206;24.142;2023-02-15T12:15:47;19.55;;;14.57;;
12214;SDS011;6170;42.206;24.142;2023-02-15T12:18:24;20.30;;;13.52;;
12214;SDS011;6170;42.206;24.142;2023-02-15T12:21:00;21.52;;;13.65;;
12214;SDS011;6170;42.206;24.142;2023-02-15T12:23:30;19.98;;;13.55;;
12214;SDS011;6170;42.206;24.142;2023-02-15T12:25:59;18.40;;;12.73;;
12214;SDS011;6170;42.206;24.142;2023-02-15T12:28:26;20.52;;;12.85;;
12214;SDS011;6170;42.206;24.142;2023-02-15T12:30:59;17.58;;;12.88;;
12214;SDS011;6170;42.206;24.142;2023-02-15T12:33:30;20.02;;;12.23;;
12214;SDS011;6170;42.206;24.142;2023-02-15T12:36:03;19.70;;;12.35;;
12214;SDS011;6170;42.206;24.142;2023-02-15T12:38:36;17.20;;;11.90;;
12214;SDS011;6170;42.206;24.142;2023-02-15T12:41:04;15.27;;;11.15;;
12214;SDS011;6170;42.206;24.142;2023-02-15T12:43:47;14.70;;;10.85;;
12214;SDS011;6170;42.206;24.142;2023-02-15T12:46:30;19.83;;;12.23;;
12214;SDS011;6170;42.206;24.142;2023-02-15T12:49:06;15.82;;;11.77;;
12214;SDS011;6170;42.206;24.142;2023-02-15T12:51:47;21.03;;;13.17;;
12214;SDS011;6170;42.206;24.142;2023-02-15T12:54:17;20.02;;;13.20;;
12214;SDS011;6170;42.206;24.142;2023-02-15T12:57:02;18.65;;;11.25;;
12214;SDS011;6170;42.206;24.142;2023-02-15T12:59:47;14.75;;;10.88;;
12214;SDS011;6170;42.206;24.142;2023-02-15T13:02:16;17.38;;;11.70;;
12214;SDS011;6170;42.206;24.142;2023-02-15T13:04:49;17.48;;;12.02;;
12214;SDS011;6170;42.206;24.142;2023-02-15T13:07:17;19.58;;;12.65;;
12214;SDS011;6170;42.206;24.142;2023-02-15T13:09:45;21.45;;;12.43;;
12214;SDS011;6170;42.206;24.142;2023-02-15T13:12:16;15.45;;;10.30;;
12214;SDS011;6170;42.206;24.142;2023-02-15T13:17:16;16.55;;;9.98;;
12214;SDS011;6170;42.206;24.142;2023-02-15T13:19:47;14.57;;;10.07;;
12214;SDS011;6170;42.206;24.142;2023-02-15T13:24:48;17.48;;;8.80;;
12214;SDS011;6170;42.206;24.142;2023-02-15T13:27:18;14.80;;;9.00;;
12214;SDS011;6170;42.206;24.142;2023-02-15T13:29:48;16.38;;;9.70;;
12214;SDS011;6170;42.206;24.142;2023-02-15T13:32:22;16.35;;;10.25;;
12214;SDS011;6170;42.206;24.142;2023-02-15T13:34:56;15.88;;;9.55;;
12214;SDS011;6170;42.206;24.142;2023-02-15T13:37:31;12.68;;;8.82;;
12214;SDS011;6170;42.206;24.142;2023-02-15T13:40:11;12.90;;;8.75;;
12214;SDS011;6170;42.206;24.142;2023-02-15T13:42:42;15.25;;;9.27;;
12214;SDS011;6170;42.206;24.142;2023-02-15T13:45:19;15.27;;;9.68;;
12214;SDS011;6170;42.206;24.142;2023-02-15T13:47:57;15.00;;;8.98;;
12214;SDS011;6170;42.206;24.142;2023-02-15T13:50:34;15.52;;;10.05;;
12214;SDS011;6170;42.206;24.142;2023-02-15T13:53:20;14.85;;;9.30;;
12214;SDS011;6170;42.206;24.142;2023-02-15T13:56:00;12.80;;;9.40;;
12214;SDS011;6170;42.206;24.142;2023-02-15T14:01:44;12.95;;;9.07;;
12214;SDS011;6170;42.206;24.142;2023-02-15T14:07:25;15.57;;;9.55;;
12214;SDS011;6170;42.206;24.142;2023-02-15T14:10:11;14.45;;;9.73;;
12214;SDS011;6170;42.206;24.142;2023-02-15T14:12:53;12.82;;;9.00;;
12214;SDS011;6170;42.206;24.142;2023-02-15T14:15:32;12.70;;;9.43;;
12214;SDS011;6170;42.206;24.142;2023-02-15T14:18:09;14.38;;;9.23;;
12214;SDS011;6170;42.206;24.142;2023-02-15T14:20:49;17.65;;;10.35;;
12214;SDS011;6170;42.206;24.142;2023-02-15T14:23:27;12.63;;;8.23;;
12214;SDS011;6170;42.206;24.142;2023-02-15T14:26:05;15.20;;;8.82;;
12214;SDS011;6170;42.206;24.142;2023-02-15T14:28:37;13.95;;;8.80;;
12214;SDS011;6170;42.206;24.142;2023-02-15T14:31:12;13.80;;;8.35;;
12214;SDS011;6170;42.206;24.142;2023-02-15T14:33:43;42.97;;;24.17;;
12214;SDS011;6170;42.206;24.142;2023-02-15T14:36:19;17.20;;;10.55;;
12214;SDS011;6170;42.206;24.142;2023-02-15T14:39:02;13.02;;;9.18;;
12214;SDS011;6170;42.206;24.142;2023-02-15T14:41:53;14.82;;;9.07;;
12214;SDS011;6170;42.206;24.142;2023-02-15T14:44:27;16.08;;;9.70;;
12214;SDS011;6170;42.206;24.142;2023-02-15T14:47:01;12.23;;;8.50;;
12214;SDS011;6170;42.206;24.142;2023-02-15T14:49:32;15.40;;;10.13;;
12214;SDS011;6170;42.206;24.142;2023-02-15T14:52:03;16.58;;;10.25;;
12214;SDS011;6170;42.206;24.142;2023-02-15T15:02:59;16.98;;;10.95;;
12214;SDS011;6170;42.206;24.142;2023-02-15T15:05:29;16.73;;;10.57;;
12214;SDS011;6170;42.206;24.142;2023-02-15T15:08:00;19.20;;;9.90;;
12214;SDS011;6170;42.206;24.142;2023-02-15T15:10:36;14.73;;;10.10;;
12214;SDS011;6170;42.206;24.142;2023-02-15T15:18:52;16.73;;;10.57;;
12214;SDS011;6170;42.206;24.142;2023-02-15T15:36:54;19.67;;;12.60;;
12214;SDS011;6170;42.206;24.142;2023-02-15T15:43:04;21.80;;;14.70;;
12214;SDS011;6170;42.206;24.142;2023-02-15T15:49:05;23.63;;;13.82;;
12214;SDS011;6170;42.206;24.142;2023-02-15T15:51:37;30.55;;;14.80;;
12214;SDS011;6170;42.206;24.142;2023-02-15T15:54:11;39.55;;;21.23;;